createdAt,value
2022-08-20T00:00:29.694Z,70.64
2022-08-20T00:03:03.262Z,70.43
2022-08-20T00:05:38.962Z,70.53
2022-08-20T00:08:06.338Z,71.07
2022-08-20T00:10:34.898Z,71.40
2022-08-20T00:13:01.812Z,71.66
2022-08-20T00:15:31.662Z,70.99
2022-08-20T00:17:59.240Z,71.34
2022-08-20T00:20:31.222Z,72.06
2022-08-20T00:22:58.625Z,72.72
2022-08-20T00:25:26.692Z,72.98
2022-08-20T00:27:53.587Z,72.17
2022-08-20T00:30:20.861Z,73.48
2022-08-20T00:33:00.558Z,73.78
2022-08-20T00:35:30.166Z,73.94
2022-08-20T00:38:00.728Z,73.05
2022-08-20T00:40:40.603Z,72.34
2022-08-20T00:43:24.298Z,73.30
2022-08-20T00:45:55.474Z,71.97
2022-08-20T00:48:32.678Z,73.72
2022-08-20T00:51:10.375Z,74.54
2022-08-20T00:53:38.473Z,74.48
2022-08-20T00:56:08.244Z,74.35
2022-08-20T00:58:37.431Z,74.42
2022-08-20T01:01:05.935Z,75.09
2022-08-20T01:03:33.325Z,74.50
2022-08-20T01:06:00.721Z,75.52
2022-08-20T01:08:27.939Z,75.25
2022-08-20T01:11:10.483Z,75.61
2022-08-20T01:13:38.851Z,74.98
2022-08-20T01:16:14.404Z,75.58
2022-08-20T01:18:45.445Z,75.88
2022-08-20T01:21:12.508Z,75.10
2022-08-20T01:23:48.750Z,76.30
2022-08-20T01:26:23.804Z,76.23
2022-08-20T01:28:56.380Z,75.97
2022-08-20T01:31:27.396Z,76.37
2022-08-20T01:33:55.887Z,76.20
2022-08-20T01:36:26.831Z,74.42
2022-08-20T01:38:54.615Z,75.80
2022-08-20T01:41:49.577Z,75.11
2022-08-20T01:44:18.382Z,75.70
2022-08-20T01:46:47.128Z,75.81
2022-08-20T01:49:22.982Z,75.47
2022-08-20T01:51:53.712Z,74.44
2022-08-20T01:54:21.597Z,75.08
2022-08-20T01:56:59.931Z,75.76
2022-08-20T01:59:27.374Z,73.92
2022-08-20T02:01:54.502Z,74.85
2022-08-20T02:04:21.428Z,74.02
2022-08-20T02:06:56.156Z,75.15
2022-08-20T02:09:30.191Z,74.75
2022-08-20T02:11:57.861Z,75.40
2022-08-20T02:14:26.584Z,75.37
2022-08-20T02:16:55.160Z,74.99
2022-08-20T02:19:57.488Z,74.84
2022-08-20T02:22:36.549Z,75.50
2022-08-20T02:25:06.672Z,75.54
2022-08-20T02:27:33.959Z,76.49
2022-08-20T02:30:03.049Z,76.64
2022-08-20T02:32:33.969Z,75.10
2022-08-20T02:35:04.082Z,75.51
2022-08-20T02:37:31.689Z,74.16
2022-08-20T02:39:58.975Z,75.66
2022-08-20T02:42:26.561Z,75.96
2022-08-20T02:44:54.466Z,76.83
2022-08-20T02:47:21.246Z,75.24
2022-08-20T02:49:48.151Z,76.90
2022-08-20T02:52:14.939Z,76.80
2022-08-20T02:54:41.840Z,76.68
2022-08-20T02:57:14.151Z,76.64
2022-08-20T02:59:41.087Z,76.67
2022-08-20T03:02:07.869Z,76.58
2022-08-20T03:04:34.686Z,75.49
2022-08-20T03:07:01.570Z,76.59
2022-08-20T03:09:28.485Z,75.73
2022-08-20T03:11:55.279Z,75.84
2022-08-20T03:14:22.106Z,76.91
2022-08-20T03:16:48.963Z,76.92
2022-08-20T03:19:15.786Z,76.14
2022-08-20T03:21:42.684Z,76.95
2022-08-20T03:24:09.649Z,76.61
2022-08-20T03:26:36.502Z,77.07
2022-08-20T03:29:03.881Z,77.61
2022-08-20T03:31:30.666Z,77.51
2022-08-20T03:33:57.622Z,76.46
2022-08-20T03:36:28.822Z,77.35
2022-08-20T03:39:01.536Z,77.10
2022-08-20T03:41:29.136Z,77.26
2022-08-20T03:43:56.083Z,76.86
2022-08-20T03:46:23.950Z,76.01
2022-08-20T03:48:59.815Z,76.57
2022-08-20T03:51:31.146Z,76.68
2022-08-20T03:53:58.999Z,76.67
2022-08-20T03:56:26.495Z,77.28
2022-08-20T03:58:53.358Z,77.63
2022-08-20T04:01:45.855Z,77.71
2022-08-20T04:04:12.115Z,77.96
2022-08-20T04:06:40.386Z,77.44
2022-08-20T04:09:09.637Z,78.01
2022-08-20T04:11:39.330Z,77.36
2022-08-20T04:14:06.318Z,78.35
2022-08-20T04:16:34.318Z,79.00
2022-08-20T04:19:03.564Z,78.64
2022-08-20T04:21:32.996Z,78.99
2022-08-20T04:24:01.407Z,78.48
2022-08-20T04:26:28.300Z,77.99
2022-08-20T04:28:55.888Z,78.83
2022-08-20T04:31:33.676Z,78.94
2022-08-20T04:34:07.765Z,78.95
2022-08-20T04:36:35.580Z,78.89
2022-08-20T04:39:02.723Z,79.34
2022-08-20T04:41:29.626Z,79.39
2022-08-20T04:43:56.885Z,78.66
2022-08-20T04:46:28.057Z,79.31
2022-08-20T04:48:56.447Z,79.04
2022-08-20T04:51:24.338Z,80.11
2022-08-20T04:53:53.726Z,80.69
2022-08-20T04:56:24.089Z,80.88
2022-08-20T04:58:52.501Z,80.06
2022-08-20T05:01:19.608Z,81.50
2022-08-20T05:03:49.260Z,79.37
2022-08-20T05:06:17.899Z,79.97
2022-08-20T05:08:44.992Z,81.11
2022-08-20T05:11:34.560Z,80.04
2022-08-20T05:13:59.312Z,79.87
2022-08-20T05:16:27.356Z,80.82
2022-08-20T05:18:54.336Z,80.40
2022-08-20T05:21:21.667Z,80.46
2022-08-20T05:23:49.526Z,80.23
2022-08-20T05:26:17.093Z,81.27
2022-08-20T05:28:58.124Z,81.31
2022-08-20T05:31:31.457Z,81.00
2022-08-20T05:34:10.801Z,80.65
2022-08-20T05:36:45.445Z,81.24
2022-08-20T05:39:15.156Z,80.88
2022-08-20T05:41:42.122Z,80.58
2022-08-20T05:44:10.970Z,81.06
2022-08-20T05:46:41.266Z,80.85
2022-08-20T05:49:13.630Z,81.20
2022-08-20T05:51:41.025Z,81.46
2022-08-20T05:54:08.133Z,81.21
2022-08-20T05:56:36.191Z,82.04
2022-08-20T05:59:04.862Z,81.83
2022-08-20T06:01:33.344Z,81.46
2022-08-20T06:04:19.628Z,81.09
2022-08-20T06:06:47.597Z,81.40
2022-08-20T06:09:28.137Z,81.27
2022-08-20T06:12:01.956Z,82.49
2022-08-20T06:14:28.894Z,81.54
2022-08-20T06:16:57.689Z,81.05
2022-08-20T06:19:27.183Z,80.81
2022-08-20T06:21:59.899Z,82.31
2022-08-20T06:24:27.134Z,81.60
2022-08-20T06:26:58.747Z,81.12
2022-08-20T06:29:26.056Z,81.16
2022-08-20T06:31:53.128Z,81.55
2022-08-20T06:34:20.060Z,81.93
2022-08-20T06:36:46.986Z,81.39
2022-08-20T06:39:15.273Z,81.19
2022-08-20T06:41:42.314Z,81.62
2022-08-20T06:44:10.217Z,81.72
2022-08-20T06:46:38.564Z,81.53
2022-08-20T06:49:06.637Z,81.96
2022-08-20T06:51:34.402Z,81.72
2022-08-20T06:54:01.596Z,82.30
2022-08-20T06:56:28.455Z,82.50
2022-08-20T06:58:55.574Z,82.60
2022-08-20T07:01:22.498Z,83.14
2022-08-20T07:03:54.386Z,83.13
2022-08-20T07:06:25.892Z,83.26
2022-08-20T07:08:54.180Z,83.14
2022-08-20T07:11:26.559Z,82.86
2022-08-20T07:13:55.092Z,82.90
2022-08-20T07:16:22.146Z,83.17
2022-08-20T07:18:49.167Z,82.76
2022-08-20T07:21:17.454Z,83.18
2022-08-20T07:23:44.453Z,82.98
2022-08-20T07:26:11.456Z,83.42
2022-08-20T07:28:38.277Z,82.04
2022-08-20T07:31:23.630Z,82.09
2022-08-20T07:33:50.778Z,82.53
2022-08-20T07:36:20.410Z,81.60
2022-08-20T07:38:48.035Z,81.00
2022-08-20T07:41:15.206Z,81.73
2022-08-20T07:43:45.642Z,80.92
2022-08-20T07:46:14.725Z,81.52
2022-08-20T07:48:46.230Z,81.76
2022-08-20T07:51:17.147Z,81.73
2022-08-20T07:53:45.373Z,80.87
2022-08-20T07:56:14.541Z,81.74
2022-08-20T07:58:43.841Z,82.43
2022-08-20T08:01:13.473Z,80.19
2022-08-20T08:03:49.443Z,80.53
2022-08-20T08:06:29.699Z,80.57
2022-08-20T08:09:10.573Z,80.65
2022-08-20T08:11:39.496Z,80.71
2022-08-20T08:14:08.369Z,79.80
2022-08-20T08:16:36.149Z,80.26
2022-08-20T08:19:06.184Z,79.89
2022-08-20T08:21:33.057Z,79.75
2022-08-20T08:23:59.980Z,80.19
2022-08-20T08:26:29.001Z,79.04
2022-08-20T08:28:56.846Z,79.22
2022-08-20T08:31:25.637Z,79.09
2022-08-20T08:33:52.654Z,78.84
2022-08-20T08:36:19.571Z,79.06
2022-08-20T08:38:46.726Z,78.32
2022-08-20T08:41:33.663Z,78.98
2022-08-20T08:44:13.122Z,79.71
2022-08-20T08:46:42.971Z,79.77
2022-08-20T08:49:15.189Z,79.58
2022-08-20T08:51:46.307Z,79.20
2022-08-20T08:54:17.423Z,78.75
2022-08-20T08:56:44.222Z,78.65
2022-08-20T08:59:18.662Z,78.21
2022-08-20T09:01:54.118Z,78.22
2022-08-20T09:04:43.225Z,78.22
2022-08-20T09:07:14.999Z,77.47
2022-08-20T09:09:44.219Z,77.19
2022-08-20T09:12:18.929Z,76.37
2022-08-20T09:14:48.078Z,76.68
2022-08-20T09:17:17.050Z,76.46
2022-08-20T09:19:44.084Z,76.14
2022-08-20T09:22:13.774Z,76.60
2022-08-20T09:24:41.567Z,75.52
2022-08-20T09:27:08.906Z,74.66
2022-08-20T09:29:35.986Z,74.88
2022-08-20T09:32:14.902Z,73.99
2022-08-20T09:34:44.544Z,73.23
2022-08-20T09:37:11.626Z,72.25
2022-08-20T09:39:38.762Z,71.69
2022-08-20T09:42:13.890Z,72.03
2022-08-20T09:44:41.328Z,70.54
2022-08-20T09:47:08.209Z,70.46
2022-08-20T09:49:36.820Z,69.46
2022-08-20T09:52:05.542Z,70.33
2022-08-20T09:54:33.916Z,69.39
2022-08-20T09:57:03.742Z,68.55
2022-08-20T09:59:31.484Z,68.18
2022-08-20T10:01:58.364Z,67.24
2022-08-20T10:04:25.464Z,67.31
2022-08-20T10:06:52.263Z,66.68
2022-08-20T10:09:19.174Z,66.53
2022-08-20T10:11:45.954Z,66.25
2022-08-20T10:14:12.832Z,66.43
2022-08-20T10:16:40.598Z,65.85
2022-08-20T10:19:07.638Z,65.91
2022-08-20T10:21:38.572Z,65.83
2022-08-20T10:24:06.319Z,64.88
2022-08-20T10:26:33.102Z,64.34
2022-08-20T10:29:00.017Z,62.89
2022-08-20T10:31:26.906Z,60.82
2022-08-20T10:33:53.768Z,61.20
2022-08-20T10:36:20.636Z,62.40
2022-08-20T10:38:49.190Z,62.23
2022-08-20T10:41:16.252Z,59.14
2022-08-20T10:43:43.194Z,60.49
2022-08-20T10:46:10.118Z,59.60
2022-08-20T10:48:37.050Z,58.28
2022-08-20T10:51:04.093Z,57.38
2022-08-20T10:53:31.208Z,57.88
2022-08-20T10:55:58.351Z,57.87
2022-08-20T10:58:25.497Z,58.05
2022-08-20T11:00:53.071Z,57.87
2022-08-20T11:03:20.327Z,58.43
2022-08-20T11:05:47.397Z,56.09
2022-08-20T11:08:14.359Z,52.98
2022-08-20T11:10:41.318Z,52.06
2022-08-20T11:13:08.859Z,51.73
2022-08-20T11:15:37.698Z,50.17
2022-08-20T11:18:05.620Z,48.96
2022-08-20T11:20:32.946Z,47.86
2022-08-20T11:22:59.933Z,48.19
2022-08-20T11:25:27.401Z,48.89
2022-08-20T11:27:56.170Z,45.49
2022-08-20T11:30:27.516Z,45.73
2022-08-20T11:32:54.965Z,44.62
2022-08-20T11:35:43.321Z,43.40
2022-08-20T11:38:11.551Z,44.75
2022-08-20T11:40:38.588Z,45.04
2022-08-20T11:43:20.808Z,43.43
2022-08-20T11:45:53.337Z,43.99
2022-08-20T11:48:20.382Z,44.02
2022-08-20T11:50:48.077Z,44.67
2022-08-20T11:53:15.472Z,43.93
2022-08-20T11:55:42.883Z,43.25
2022-08-20T11:58:10.201Z,43.82
2022-08-20T12:00:37.228Z,42.75
2022-08-20T12:03:08.906Z,41.05
2022-08-20T12:05:39.835Z,42.29
2022-08-20T12:08:06.935Z,41.33
2022-08-20T12:10:34.286Z,41.68
2022-08-20T12:13:03.438Z,41.72
2022-08-20T12:15:32.042Z,41.26
2022-08-20T12:17:59.276Z,41.99
2022-08-20T12:20:26.405Z,42.23
2022-08-20T12:22:54.229Z,41.32
2022-08-20T12:25:21.334Z,42.00
2022-08-20T12:27:48.165Z,42.41
2022-08-20T12:30:18.196Z,42.27
2022-08-20T12:32:45.152Z,41.95
2022-08-20T12:35:14.104Z,40.94
2022-08-20T12:37:42.208Z,40.25
2022-08-20T12:40:13.394Z,39.70
2022-08-20T12:42:40.653Z,40.20
2022-08-20T12:45:08.428Z,39.36
2022-08-20T12:47:38.572Z,38.77
2022-08-20T12:50:11.954Z,37.52
2022-08-20T12:52:39.541Z,35.39
2022-08-20T12:55:08.242Z,33.87
2022-08-20T12:57:57.429Z,33.42
2022-08-20T13:00:51.977Z,32.25
2022-08-20T13:03:20.711Z,32.56
2022-08-20T13:05:48.342Z,32.27
2022-08-20T13:08:15.229Z,31.71
2022-08-20T13:10:45.795Z,30.67
2022-08-20T13:13:14.790Z,30.60
2022-08-20T13:15:44.425Z,30.98
2022-08-20T13:18:11.427Z,30.56
2022-08-20T13:20:38.508Z,30.37
2022-08-20T13:23:05.617Z,30.25
2022-08-20T13:25:33.627Z,29.16
2022-08-20T13:28:04.430Z,29.85
2022-08-20T13:30:32.286Z,28.38
2022-08-20T13:32:59.183Z,28.50
2022-08-20T13:35:26.188Z,28.92
2022-08-20T13:37:53.252Z,28.28
2022-08-20T13:40:20.366Z,27.10
2022-08-20T13:42:47.228Z,27.47
2022-08-20T13:45:14.447Z,28.44
2022-08-20T13:47:42.443Z,28.13
2022-08-20T13:50:15.855Z,29.13
2022-08-20T13:52:43.551Z,27.98
2022-08-20T13:55:13.104Z,29.19
2022-08-20T13:57:40.375Z,29.82
2022-08-20T14:00:12.332Z,30.64
2022-08-20T14:02:40.288Z,30.52
2022-08-20T14:05:07.509Z,32.61
2022-08-20T14:07:34.659Z,34.02
2022-08-20T14:10:08.238Z,32.11
2022-08-20T14:12:35.248Z,30.29
2022-08-20T14:15:02.133Z,30.35
2022-08-20T14:17:32.829Z,29.71
2022-08-20T14:20:04.349Z,29.48
2022-08-20T14:22:31.555Z,29.86
2022-08-20T14:25:02.686Z,29.92
2022-08-20T14:27:31.479Z,29.11
2022-08-20T14:29:58.812Z,29.35
2022-08-20T14:32:26.080Z,28.07
2022-08-20T14:34:53.926Z,28.66
2022-08-20T14:37:25.989Z,30.17
2022-08-20T14:39:55.362Z,30.72
2022-08-20T14:42:23.005Z,30.14
2022-08-20T14:44:51.043Z,27.87
2022-08-20T14:47:20.745Z,28.80
2022-08-20T14:49:49.252Z,31.15
2022-08-20T14:52:17.435Z,32.69
2022-08-20T14:54:45.092Z,33.06
2022-08-20T14:57:15.203Z,34.69
2022-08-20T14:59:42.801Z,35.48
2022-08-20T15:02:11.855Z,35.82
2022-08-20T15:04:39.356Z,34.38
2022-08-20T15:07:16.250Z,32.67
2022-08-20T15:09:43.273Z,29.75
2022-08-20T15:12:10.093Z,31.73
2022-08-20T15:14:39.258Z,30.73
2022-08-20T15:17:06.381Z,29.61
2022-08-20T15:19:33.207Z,29.61
2022-08-20T15:22:00.157Z,28.70
2022-08-20T15:24:27.047Z,30.16
2022-08-20T15:26:54.134Z,30.20
2022-08-20T15:29:23.267Z,32.56
2022-08-20T15:31:51.197Z,30.71
2022-08-20T15:34:18.405Z,32.74
2022-08-20T15:36:46.233Z,33.21
2022-08-20T15:39:12.993Z,33.97
2022-08-20T15:41:39.818Z,34.17
2022-08-20T15:44:07.231Z,34.64
2022-08-20T15:46:37.493Z,34.91
2022-08-20T15:49:08.725Z,35.18
2022-08-20T15:51:44.949Z,35.90
2022-08-20T15:54:19.650Z,36.84
2022-08-20T15:56:50.875Z,36.53
2022-08-20T15:59:43.605Z,36.25
2022-08-20T16:02:35.383Z,36.18
2022-08-20T16:05:15.180Z,36.17
2022-08-20T16:08:06.691Z,34.83
2022-08-20T16:11:01.537Z,33.39
2022-08-20T16:13:32.430Z,32.64
2022-08-20T16:16:01.638Z,34.44
2022-08-20T16:18:33.647Z,32.61
2022-08-20T16:21:03.763Z,32.99
2022-08-20T16:23:37.971Z,33.30
2022-08-20T16:26:27.279Z,32.66
2022-08-20T16:29:11.705Z,32.82
2022-08-20T16:32:04.050Z,33.82
2022-08-20T16:34:41.468Z,34.54
2022-08-20T16:37:11.226Z,34.28
2022-08-20T16:40:17.041Z,34.91
2022-08-20T16:42:46.589Z,35.26
2022-08-20T16:45:19.599Z,36.12
2022-08-20T16:47:46.816Z,35.93
2022-08-20T16:50:24.427Z,35.54
2022-08-20T16:52:52.000Z,35.67
2022-08-20T16:55:21.682Z,36.18
2022-08-20T16:57:48.925Z,36.00
2022-08-20T17:00:39.028Z,34.54
2022-08-20T17:03:31.615Z,33.39
2022-08-20T17:06:45.808Z,33.30
2022-08-20T17:09:20.169Z,33.80
2022-08-20T17:11:48.794Z,33.50
2022-08-20T17:14:18.698Z,34.68
2022-08-20T17:16:50.001Z,33.17
2022-08-20T17:19:28.712Z,32.16
2022-08-20T17:21:56.199Z,32.23
2022-08-20T17:24:26.448Z,32.43
2022-08-20T17:26:58.517Z,32.60
2022-08-20T17:29:32.315Z,34.31
2022-08-20T17:32:15.845Z,35.67
2022-08-20T17:34:48.769Z,36.46
2022-08-20T17:37:36.177Z,37.58
2022-08-20T17:40:28.006Z,37.63
2022-08-20T17:43:07.505Z,38.17
2022-08-20T17:45:37.397Z,38.28
2022-08-20T17:48:08.403Z,39.00
2022-08-20T17:50:36.410Z,39.97
2022-08-20T17:53:27.265Z,40.38
2022-08-20T17:56:13.504Z,40.89
2022-08-20T17:59:03.375Z,40.95
2022-08-20T18:01:33.888Z,42.22
2022-08-20T18:04:00.886Z,43.24
2022-08-20T18:06:58.564Z,42.59
2022-08-20T18:09:51.697Z,43.17
2022-08-20T18:12:39.596Z,43.00
2022-08-20T18:15:11.727Z,43.37
2022-08-20T18:17:58.065Z,43.18
2022-08-20T18:20:27.636Z,43.37
2022-08-20T18:23:03.705Z,43.78
2022-08-20T18:26:04.260Z,43.23
2022-08-20T18:28:52.785Z,43.34
2022-08-20T18:31:48.953Z,44.14
2022-08-20T18:34:19.296Z,45.41
2022-08-20T18:37:01.780Z,44.62
2022-08-20T18:39:36.085Z,44.18
2022-08-20T18:42:02.945Z,44.40
2022-08-20T18:44:40.244Z,44.99
2022-08-20T18:47:23.223Z,45.27
2022-08-20T18:50:16.799Z,45.61
2022-08-20T18:52:53.246Z,45.68
2022-08-20T18:55:45.704Z,45.88
2022-08-20T18:58:34.824Z,45.41
2022-08-20T19:01:04.956Z,44.43
2022-08-20T19:03:39.055Z,43.67
2022-08-20T19:06:27.640Z,44.01
2022-08-20T19:09:06.319Z,44.51
2022-08-20T19:12:00.772Z,45.25
2022-08-20T19:14:52.293Z,45.33
2022-08-20T19:17:52.561Z,45.83
2022-08-20T19:20:22.348Z,46.32
2022-08-20T19:22:50.519Z,46.30
2022-08-20T19:25:38.081Z,47.46
2022-08-20T19:28:24.096Z,46.87
2022-08-20T19:30:52.530Z,47.38
2022-08-20T19:33:43.915Z,47.04
2022-08-20T19:36:22.314Z,47.36
2022-08-20T19:38:59.063Z,47.61
2022-08-20T19:41:44.171Z,48.03
2022-08-20T19:44:11.418Z,48.34
2022-08-20T19:46:44.880Z,48.32
2022-08-20T19:49:15.602Z,49.01
2022-08-20T19:52:00.283Z,48.96
2022-08-20T19:54:29.007Z,49.53
2022-08-20T19:57:06.932Z,49.67
2022-08-20T19:59:33.923Z,49.85
2022-08-20T20:02:03.635Z,49.77
2022-08-20T20:04:55.374Z,50.87
2022-08-20T20:07:34.380Z,49.83
2022-08-20T20:10:01.375Z,50.10
2022-08-20T20:12:28.993Z,49.96
2022-08-20T20:14:55.990Z,50.77
2022-08-20T20:17:25.383Z,50.63
2022-08-20T20:20:00.947Z,50.43
2022-08-20T20:22:27.770Z,50.26
2022-08-20T20:25:12.912Z,50.88
2022-08-20T20:27:40.516Z,50.80
2022-08-20T20:30:11.371Z,51.25
2022-08-20T20:32:47.160Z,52.30
2022-08-20T20:35:27.824Z,51.91
2022-08-20T20:38:08.041Z,52.08
2022-08-20T20:40:50.447Z,52.14
2022-08-20T20:43:25.259Z,52.30
2022-08-20T20:46:12.924Z,52.62
2022-08-20T20:48:43.075Z,52.25
2022-08-20T20:51:26.729Z,53.31
2022-08-20T20:53:55.304Z,52.49
2022-08-20T20:56:26.954Z,52.36
2022-08-20T20:58:56.133Z,52.68
2022-08-20T21:01:47.892Z,53.84
2022-08-20T21:04:10.482Z,54.16
2022-08-20T21:06:37.301Z,54.19
2022-08-20T21:09:04.239Z,54.13
2022-08-20T21:11:31.125Z,53.84
2022-08-20T21:13:57.971Z,54.71
2022-08-20T21:16:24.750Z,54.57
2022-08-20T21:18:51.691Z,54.20
2022-08-20T21:21:18.582Z,54.82
2022-08-20T21:23:45.419Z,55.84
2022-08-20T21:26:12.451Z,54.96
2022-08-20T21:28:39.680Z,55.64
2022-08-20T21:31:06.552Z,54.59
2022-08-20T21:33:33.396Z,55.80
2022-08-20T21:36:00.214Z,55.20
2022-08-20T21:38:27.932Z,56.46
2022-08-20T21:40:54.755Z,55.85
2022-08-20T21:43:25.154Z,57.08
2022-08-20T21:45:52.017Z,55.53
2022-08-20T21:48:19.223Z,57.43
2022-08-20T21:50:46.031Z,57.64
2022-08-20T21:53:13.295Z,58.65
2022-08-20T21:55:40.768Z,58.38
2022-08-20T21:58:08.333Z,59.66
2022-08-20T22:00:50.635Z,59.11
2022-08-20T22:03:20.118Z,58.52
2022-08-20T22:05:47.338Z,57.41
2022-08-20T22:08:14.235Z,59.01
2022-08-20T22:10:41.008Z,59.91
2022-08-20T22:13:07.952Z,59.19
2022-08-20T22:15:34.750Z,57.74
2022-08-20T22:18:01.702Z,60.19
2022-08-20T22:20:29.015Z,60.61
2022-08-20T22:22:55.900Z,60.58
2022-08-20T22:25:23.374Z,58.88
2022-08-20T22:27:50.201Z,59.80
2022-08-20T22:30:17.040Z,58.66
2022-08-20T22:32:52.029Z,61.48
2022-08-20T22:35:19.878Z,60.81
2022-08-20T22:37:46.978Z,61.36
2022-08-20T22:40:13.958Z,61.78
2022-08-20T22:42:40.826Z,61.97
2022-08-20T22:45:11.591Z,61.97
2022-08-20T22:47:41.874Z,63.52
2022-08-20T22:50:08.957Z,63.40
2022-08-20T22:52:37.702Z,63.42
2022-08-20T22:55:06.046Z,63.63
2022-08-20T22:57:34.363Z,63.93
2022-08-20T23:00:01.563Z,64.22
2022-08-20T23:02:28.418Z,63.83
2022-08-20T23:04:55.248Z,63.20
2022-08-20T23:07:22.194Z,63.99
2022-08-20T23:09:49.429Z,64.62
2022-08-20T23:12:16.266Z,65.06
2022-08-20T23:14:43.116Z,64.54
2022-08-20T23:17:17.621Z,65.67
2022-08-20T23:19:45.966Z,65.34
2022-08-20T23:22:13.064Z,65.74
2022-08-20T23:24:40.452Z,65.60
2022-08-20T23:27:08.405Z,65.80
2022-08-20T23:29:35.711Z,66.00
2022-08-20T23:32:02.693Z,65.82
2022-08-20T23:34:29.626Z,67.01
2022-08-20T23:36:57.411Z,66.77
2022-08-20T23:39:25.707Z,64.62
2022-08-20T23:41:53.560Z,65.52
2022-08-20T23:44:26.521Z,67.00
2022-08-20T23:47:00.526Z,66.06
2022-08-20T23:49:28.069Z,66.62
2022-08-20T23:51:55.486Z,64.45
2022-08-20T23:54:22.367Z,67.74
2022-08-20T23:56:49.588Z,68.75
2022-08-20T23:59:16.881Z,68.38
